Time;durP1;ratioP1;P1;durP2;ratioP2;P2;SDS_P1;SDS_P2;PMS_P1;PMS_P2;Temp;Humidity;BMP_temperature;BMP_pressure;BME280_temperature;BME280_humidity;BME280_pressure;Samples;Min_cycle;Max_cycle;Signal;HPM_P1;HPM_P2
2021/07/07 00:01:16;;;;;;;;;;;16.90;99.90;;;;;;4985945;28;20101;-54
2021/07/07 00:03:42;;;;;;;;;;;16.90;99.90;;;;;;4986808;28;20082;-52
2021/07/07 00:06:07;;;;;;;;;;;17.00;99.90;;;;;;4987014;28;19987;-52
2021/07/07 00:08:34;;;;;;;;;;;17.00;99.90;;;;;;4986514;28;19990;-52
2021/07/07 00:11:01;;;;;;;;;;;17.00;99.90;;;;;;4986708;28;20012;-52
2021/07/07 00:13:26;;;;;;;;;;;17.00;99.90;;;;;;4986607;28;19987;-51
2021/07/07 00:15:53;;;;;;;;;;;16.90;99.90;;;;;;4986795;28;19987;-54
2021/07/07 00:18:19;;;;;;;;;;;16.90;99.90;;;;;;4986126;28;20384;-52
2021/07/07 00:23:17;;;;;;;;;;;16.80;99.90;;;;;;4985897;28;19998;-52
2021/07/07 00:25:42;;;;;;;;;;;16.80;99.90;;;;;;4985399;28;20456;-52
2021/07/07 00:28:08;;;;;;;;;;;16.80;99.90;;;;;;4986577;28;19993;-51
2021/07/07 00:30:34;;;;;;;;;;;16.90;99.90;;;;;;4986537;28;19990;-49
2021/07/07 00:33:00;;;;;;;;;;;16.90;99.90;;;;;;4985822;28;20000;-49
2021/07/07 00:35:26;;;;;;;;;;;16.90;99.90;;;;;;4986553;28;20371;-50
2021/07/07 00:37:51;;;;;;;;;;;16.90;99.90;;;;;;4986333;28;20002;-51
2021/07/07 00:40:18;;;;;;;;;;;17.00;99.90;;;;;;4986056;28;20018;-52
2021/07/07 00:42:45;;;;;;;;;;;17.00;99.90;;;;;;4986194;28;20089;-51
2021/07/07 00:45:11;;;;;;;;;;;17.00;99.90;;;;;;4986565;28;19987;-52
2021/07/07 00:47:36;;;;;;;;;;;17.00;99.90;;;;;;4986475;28;19987;-50
2021/07/07 00:50:03;;;;;;;;;;;17.00;99.90;;;;;;4985949;28;19990;-52
2021/07/07 00:52:30;;;;;;;;;;;16.90;99.90;;;;;;4985644;28;20503;-50
2021/07/07 00:54:55;;;;;;;;;;;16.90;99.90;;;;;;4986066;28;19991;-50
2021/07/07 00:57:24;;;;;;;;;;;16.90;99.90;;;;;;4985568;28;19997;-50
2021/07/07 00:59:53;;;;;;;;;;;16.90;99.90;;;;;;4985836;28;20046;-52
2021/07/07 01:02:19;;;;;;;;;;;16.90;99.90;;;;;;5000782;28;19994;-50
2021/07/07 01:04:46;;;;;;;;;;;16.90;99.90;;;;;;4985839;28;19990;-52
2021/07/07 01:07:11;;;;;;;;;;;16.80;99.90;;;;;;4986122;28;20376;-53
2021/07/07 01:09:37;;;;;;;;;;;16.90;99.90;;;;;;4986984;28;20003;-49
2021/07/07 01:12:03;;;;;;;;;;;16.80;99.90;;;;;;4985526;28;20367;-49
2021/07/07 01:14:28;;;;;;;;;;;16.90;99.90;;;;;;4985785;28;20001;-50
2021/07/07 01:16:55;;;;;;;;;;;16.90;99.90;;;;;;4985987;28;20506;-50
2021/07/07 01:19:21;;;;;;;;;;;16.90;99.90;;;;;;4985532;28;20030;-52
2021/07/07 01:21:48;;;;;;;;;;;16.90;99.90;;;;;;4986088;28;20058;-53
2021/07/07 01:24:14;;;;;;;;;;;16.90;99.90;;;;;;4985651;28;19991;-52
2021/07/07 01:26:40;;;;;;;;;;;16.90;99.90;;;;;;4986164;28;19998;-51
2021/07/07 01:29:06;;;;;;;;;;;17.00;99.90;;;;;;4985257;28;19991;-52
2021/07/07 01:31:32;;;;;;;;;;;16.90;99.90;;;;;;4985864;28;19997;-52
2021/07/07 01:33:58;;;;;;;;;;;16.90;99.90;;;;;;4985513;28;19987;-50
2021/07/07 01:36:24;;;;;;;;;;;16.90;99.90;;;;;;4986106;28;20417;-50
2021/07/07 01:38:50;;;;;;;;;;;16.90;99.90;;;;;;4984646;28;20010;-49
2021/07/07 01:41:16;;;;;;;;;;;16.90;99.90;;;;;;4985907;28;20396;-49
2021/07/07 01:43:42;;;;;;;;;;;16.90;99.90;;;;;;4986589;28;19995;-49
2021/07/07 01:46:08;;;;;;;;;;;16.80;99.90;;;;;;4989107;28;19987;-51
2021/07/07 01:48:33;;;;;;;;;;;16.80;99.90;;;;;;4989025;28;19998;-50
2021/07/07 01:50:59;;;;;;;;;;;16.80;99.90;;;;;;4989045;28;19991;-51
2021/07/07 01:53:24;;;;;;;;;;;16.80;99.90;;;;;;4989145;28;19998;-52
2021/07/07 01:55:50;;;;;;;;;;;16.80;99.90;;;;;;4989759;28;19986;-51
2021/07/07 01:58:16;;;;;;;;;;;16.80;99.90;;;;;;4988602;28;19999;-52
2021/07/07 02:00:42;;;;;;;;;;;16.80;99.90;;;;;;4988560;28;20017;-51
2021/07/07 02:03:08;;;;;;;;;;;16.80;99.90;;;;;;4988180;28;19987;-52
2021/07/07 02:05:35;;;;;;;;;;;16.80;99.90;;;;;;4989137;28;20025;-52
2021/07/07 02:08:04;;;;;;;;;;;16.80;99.90;;;;;;4988574;28;20365;-52
2021/07/07 02:10:29;;;;;;;;;;;16.80;99.90;;;;;;4988781;28;20033;-53
2021/07/07 02:12:56;;;;;;;;;;;16.70;99.90;;;;;;4988471;28;20042;-52
2021/07/07 02:15:23;;;;;;;;;;;16.70;99.90;;;;;;4989093;28;19986;-52
2021/07/07 02:17:51;;;;;;;;;;;16.80;99.90;;;;;;4989089;28;20393;-49
2021/07/07 02:20:17;;;;;;;;;;;16.80;99.90;;;;;;4988441;28;20014;-49
2021/07/07 02:22:43;;;;;;;;;;;16.80;99.90;;;;;;4988449;28;20447;-50
2021/07/07 02:25:14;;;;;;;;;;;16.80;99.90;;;;;;4988192;28;19986;-53
2021/07/07 02:27:39;;;;;;;;;;;16.70;99.90;;;;;;4988048;28;20535;-51
2021/07/07 02:30:07;;;;;;;;;;;16.60;99.90;;;;;;4988612;28;20085;-52
2021/07/07 02:32:33;;;;;;;;;;;16.60;99.90;;;;;;4988217;28;19991;-49
2021/07/07 02:34:59;;;;;;;;;;;16.70;99.90;;;;;;4988071;28;20068;-50
2021/07/07 02:37:26;;;;;;;;;;;16.70;99.90;;;;;;4988278;28;20463;-50
2021/07/07 02:39:52;;;;;;;;;;;16.70;99.90;;;;;;4988842;28;20018;-49
2021/07/07 02:42:18;;;;;;;;;;;16.70;99.90;;;;;;4987939;28;20491;-53
2021/07/07 02:44:44;;;;;;;;;;;16.70;99.90;;;;;;4988376;28;19990;-53
2021/07/07 02:47:09;;;;;;;;;;;16.70;99.90;;;;;;4987818;28;20459;-51
2021/07/07 02:49:36;;;;;;;;;;;16.70;99.90;;;;;;4988167;28;19990;-51
2021/07/07 02:52:03;;;;;;;;;;;16.70;99.90;;;;;;4987571;28;19987;-52
2021/07/07 02:54:30;;;;;;;;;;;16.70;99.90;;;;;;4987845;28;20081;-51
2021/07/07 02:56:55;;;;;;;;;;;16.60;99.90;;;;;;5002680;28;20400;-53
2021/07/07 02:59:22;;;;;;;;;;;16.70;99.90;;;;;;4988127;28;19998;-50
2021/07/07 03:01:47;;;;;;;;;;;16.70;99.90;;;;;;4987304;28;20463;-52
2021/07/07 03:04:13;;;;;;;;;;;16.70;99.90;;;;;;4987648;28;20023;-50
2021/07/07 03:06:39;;;;;;;;;;;16.80;99.90;;;;;;4987562;28;19994;-51
2021/07/07 03:09:05;;;;;;;;;;;16.70;99.90;;;;;;4987424;28;19999;-53
2021/07/07 03:11:31;;;;;;;;;;;16.70;99.90;;;;;;4987743;28;20524;-52
2021/07/07 03:13:57;;;;;;;;;;;16.70;99.90;;;;;;4987724;28;20499;-50
2021/07/07 03:16:23;;;;;;;;;;;16.70;99.90;;;;;;4988101;28;19986;-49
2021/07/07 03:18:48;;;;;;;;;;;16.70;99.90;;;;;;4987834;28;19987;-50
2021/07/07 03:21:14;;;;;;;;;;;16.70;99.90;;;;;;4987061;28;20015;-49
2021/07/07 03:23:40;;;;;;;;;;;16.60;99.90;;;;;;4987626;28;20013;-51
2021/07/07 03:26:05;;;;;;;;;;;16.70;99.90;;;;;;4986896;28;19991;-50
2021/07/07 03:28:31;;;;;;;;;;;16.70;99.90;;;;;;4987294;28;19987;-51
2021/07/07 03:30:56;;;;;;;;;;;16.70;99.90;;;;;;4987188;28;20522;-49
2021/07/07 03:33:22;;;;;;;;;;;16.70;99.90;;;;;;4987579;28;19993;-52
2021/07/07 03:35:48;;;;;;;;;;;16.70;99.90;;;;;;4987213;28;20071;-50
2021/07/07 03:38:15;;;;;;;;;;;16.70;99.90;;;;;;4985719;28;20049;-50
2021/07/07 03:40:41;;;;;;;;;;;16.70;99.90;;;;;;4987204;28;20021;-49
2021/07/07 03:43:07;;;;;;;;;;;16.70;99.90;;;;;;4987173;28;19990;-51
2021/07/07 03:45:32;;;;;;;;;;;16.70;99.90;;;;;;4987282;28;20085;-53
2021/07/07 03:47:58;;;;;;;;;;;16.70;99.90;;;;;;4986745;28;20537;-54
2021/07/07 03:50:24;;;;;;;;;;;16.70;99.90;;;;;;4986862;28;19998;-52
2021/07/07 03:52:50;;;;;;;;;;;16.70;99.90;;;;;;4986958;28;19990;-51
2021/07/07 03:55:17;;;;;;;;;;;16.70;99.90;;;;;;4986535;28;20372;-50
2021/07/07 03:57:43;;;;;;;;;;;16.60;99.90;;;;;;4987065;28;19986;-49
2021/07/07 04:00:10;;;;;;;;;;;16.60;99.90;;;;;;4985889;28;20015;-52
2021/07/07 04:02:36;;;;;;;;;;;16.70;99.90;;;;;;4987162;28;19986;-53
2021/07/07 04:05:03;;;;;;;;;;;16.70;99.90;;;;;;4986184;28;20082;-49
2021/07/07 04:07:30;;;;;;;;;;;16.60;99.90;;;;;;4986339;28;20083;-49
2021/07/07 04:09:56;;;;;;;;;;;16.70;99.90;;;;;;4986697;28;20377;-50
2021/07/07 04:12:23;;;;;;;;;;;16.60;99.90;;;;;;4985912;28;20472;-52
2021/07/07 04:14:49;;;;;;;;;;;16.50;99.90;;;;;;4986402;28;19987;-52
2021/07/07 04:17:15;;;;;;;;;;;16.50;99.90;;;;;;4986147;28;20050;-52
2021/07/07 04:19:41;;;;;;;;;;;16.40;99.90;;;;;;4986486;28;20468;-52
2021/07/07 04:22:08;;;;;;;;;;;16.50;99.90;;;;;;4986746;28;20073;-49
2021/07/07 04:24:33;;;;;;;;;;;16.60;99.90;;;;;;4987160;28;19994;-51
2021/07/07 04:26:59;;;;;;;;;;;16.60;99.90;;;;;;4986065;28;19990;-52
2021/07/07 04:29:24;;;;;;;;;;;16.40;99.90;;;;;;4986728;28;20001;-52
2021/07/07 04:31:53;;;;;;;;;;;16.50;99.90;;;;;;4986623;28;19991;-50
2021/07/07 04:34:19;;;;;;;;;;;16.50;99.90;;;;;;4986104;28;19994;-49
2021/07/07 04:36:44;;;;;;;;;;;16.40;99.90;;;;;;4986836;28;20084;-52
2021/07/07 04:39:10;;;;;;;;;;;16.40;99.90;;;;;;4985920;28;19987;-52
2021/07/07 04:41:37;;;;;;;;;;;16.40;99.90;;;;;;4986848;28;20010;-48
2021/07/07 04:44:02;;;;;;;;;;;16.40;99.90;;;;;;4985967;28;20460;-51
2021/07/07 04:46:28;;;;;;;;;;;16.40;99.90;;;;;;4986254;28;20021;-50
2021/07/07 04:48:53;;;;;;;;;;;16.40;99.90;;;;;;4986318;28;19983;-52
2021/07/07 04:51:19;;;;;;;;;;;16.40;99.90;;;;;;4985707;28;20014;-49
2021/07/07 04:53:44;;;;;;;;;;;16.40;99.90;;;;;;4986286;28;20463;-52
2021/07/07 04:56:10;;;;;;;;;;;16.40;99.90;;;;;;4985699;28;20283;-50
2021/07/07 04:58:36;;;;;;;;;;;16.40;99.90;;;;;;4986484;28;20005;-49
2021/07/07 05:01:02;;;;;;;;;;;16.40;99.90;;;;;;4985339;28;20105;-49
2021/07/07 05:03:28;;;;;;;;;;;16.40;99.90;;;;;;4986053;28;20078;-49
2021/07/07 05:05:56;;;;;;;;;;;16.50;99.90;;;;;;4986199;28;19998;-49
2021/07/07 05:08:21;;;;;;;;;;;16.60;99.90;;;;;;4985701;28;19986;-49
2021/07/07 05:10:47;;;;;;;;;;;16.60;99.90;;;;;;4985978;28;19987;-50
2021/07/07 05:13:15;;;;;;;;;;;16.70;99.90;;;;;;4985414;28;20123;-49
2021/07/07 05:15:41;;;;;;;;;;;16.70;99.90;;;;;;4986052;28;19986;-52
2021/07/07 05:18:09;;;;;;;;;;;16.70;99.90;;;;;;4986488;28;20336;-49
2021/07/07 05:20:35;;;;;;;;;;;16.80;99.90;;;;;;4990372;28;20022;-52
2021/07/07 05:23:06;;;;;;;;;;;16.80;99.90;;;;;;4989120;28;19987;-52
2021/07/07 05:25:32;;;;;;;;;;;16.80;99.90;;;;;;4989450;28;20408;-51
2021/07/07 05:27:58;;;;;;;;;;;16.90;99.90;;;;;;4989208;28;19994;-52
2021/07/07 05:30:25;;;;;;;;;;;16.90;99.90;;;;;;4989370;28;20037;-52
2021/07/07 05:32:51;;;;;;;;;;;16.90;99.90;;;;;;4989548;28;19990;-49
2021/07/07 05:35:18;;;;;;;;;;;16.90;99.90;;;;;;4989237;28;19987;-51
2021/07/07 05:37:44;;;;;;;;;;;16.80;99.90;;;;;;4989427;28;19987;-49
2021/07/07 05:40:10;;;;;;;;;;;16.90;99.90;;;;;;4989158;28;20011;-53
2021/07/07 05:42:36;;;;;;;;;;;16.90;99.90;;;;;;4989832;28;19987;-49
2021/07/07 05:45:03;;;;;;;;;;;16.90;99.90;;;;;;4989040;28;20067;-51
2021/07/07 05:47:29;;;;;;;;;;;16.90;99.90;;;;;;5004093;28;20162;-53
2021/07/07 05:49:57;;;;;;;;;;;16.90;99.90;;;;;;4989356;28;20107;-51
2021/07/07 05:52:25;;;;;;;;;;;16.90;99.90;;;;;;4989123;28;19998;-52
2021/07/07 05:54:51;;;;;;;;;;;16.90;99.90;;;;;;4988761;28;20034;-50
2021/07/07 05:57:17;;;;;;;;;;;17.00;99.90;;;;;;4988669;28;20511;-50
2021/07/07 05:59:43;;;;;;;;;;;17.00;99.90;;;;;;4988535;28;20009;-53
2021/07/07 06:02:09;;;;;;;;;;;17.00;99.90;;;;;;4988479;28;20455;-52
2021/07/07 06:04:34;;;;;;;;;;;17.00;99.90;;;;;;4989754;28;20472;-49
2021/07/07 06:07:00;;;;;;;;;;;17.10;99.90;;;;;;4988744;28;19998;-50
2021/07/07 06:09:25;;;;;;;;;;;17.20;99.90;;;;;;4989007;28;19987;-49
2021/07/07 06:11:51;;;;;;;;;;;17.20;99.90;;;;;;4979531;28;20369;-52
2021/07/07 06:14:17;;;;;;;;;;;17.10;99.90;;;;;;4981007;28;19987;-51
2021/07/07 06:16:43;;;;;;;;;;;17.00;99.90;;;;;;4970547;28;20038;-52
2021/07/07 06:19:09;;;;;;;;;;;17.20;99.90;;;;;;4982818;28;20419;-51
2021/07/07 06:21:35;;;;;;;;;;;17.20;99.90;;;;;;4990248;28;20129;-51
2021/07/07 06:24:01;;;;;;;;;;;17.30;99.90;;;;;;4987511;28;20110;-50
2021/07/07 06:26:28;;;;;;;;;;;17.40;99.90;;;;;;4977586;28;19998;-52
2021/07/07 06:28:55;;;;;;;;;;;17.30;99.90;;;;;;4988795;28;19986;-52
2021/07/07 06:31:21;;;;;;;;;;;17.30;99.90;;;;;;4983648;28;19991;-48
2021/07/07 06:33:47;;;;;;;;;;;17.40;99.90;;;;;;4989375;28;19995;-50
2021/07/07 06:36:13;;;;;;;;;;;17.50;99.90;;;;;;4989506;28;20677;-51
2021/07/07 06:38:38;;;;;;;;;;;17.60;99.90;;;;;;4989714;28;19987;-52
2021/07/07 06:41:04;;;;;;;;;;;17.60;99.90;;;;;;4989865;28;20014;-51
2021/07/07 06:43:29;;;;;;;;;;;17.70;99.90;;;;;;4989466;28;19994;-52
2021/07/07 06:45:55;;;;;;;;;;;17.60;99.90;;;;;;4973263;28;20006;-52
2021/07/07 06:48:21;;;;;;;;;;;17.60;99.90;;;;;;4970059;28;20081;-52
2021/07/07 06:50:46;;;;;;;;;;;17.70;99.90;;;;;;4972836;28;19991;-53
2021/07/07 06:53:14;;;;;;;;;;;17.70;99.90;;;;;;4970168;28;20002;-52
2021/07/07 06:55:41;;;;;;;;;;;17.70;99.90;;;;;;4968367;28;19991;-54
2021/07/07 06:58:12;;;;;;;;;;;17.70;99.90;;;;;;4968809;28;19999;-53
2021/07/07 07:00:40;;;;;;;;;;;17.90;99.90;;;;;;4969808;28;20011;-51
2021/07/07 07:03:05;;;;;;;;;;;17.80;99.90;;;;;;4972320;28;19999;-53
2021/07/07 07:05:33;;;;;;;;;;;17.90;99.90;;;;;;4977141;28;20416;-53
2021/07/07 07:07:58;;;;;;;;;;;17.90;99.90;;;;;;4979137;28;20082;-54
2021/07/07 07:10:24;;;;;;;;;;;17.90;99.90;;;;;;4968377;28;20129;-53
2021/07/07 07:12:49;;;;;;;;;;;18.00;99.90;;;;;;4969607;28;19998;-53
2021/07/07 07:15:15;;;;;;;;;;;18.00;99.90;;;;;;4968314;28;20082;-50
2021/07/07 07:17:41;;;;;;;;;;;18.00;99.90;;;;;;4968975;28;19987;-53
2021/07/07 07:20:08;;;;;;;;;;;18.20;99.90;;;;;;4969703;28;20011;-54
2021/07/07 07:22:35;;;;;;;;;;;18.10;99.90;;;;;;4970890;28;19998;-52
2021/07/07 07:25:01;;;;;;;;;;;18.10;99.90;;;;;;4979569;28;19991;-51
2021/07/07 07:27:26;;;;;;;;;;;18.20;99.90;;;;;;4978834;28;20001;-53
2021/07/07 07:29:52;;;;;;;;;;;18.20;99.90;;;;;;4982715;28;20003;-54
2021/07/07 07:32:17;;;;;;;;;;;18.20;99.90;;;;;;4988836;28;20044;-53
2021/07/07 07:34:43;;;;;;;;;;;18.20;99.90;;;;;;4972589;28;19991;-53
2021/07/07 07:37:13;;;;;;;;;;;18.20;99.90;;;;;;4973484;28;19999;-53
2021/07/07 07:39:45;;;;;;;;;;;18.20;99.90;;;;;;4981924;28;20044;-52
2021/07/07 07:42:14;;;;;;;;;;;18.20;99.90;;;;;;4986291;28;20002;-54
2021/07/07 07:44:40;;;;;;;;;;;18.40;99.90;;;;;;4987567;28;20528;-53
2021/07/07 07:47:06;;;;;;;;;;;18.30;99.90;;;;;;4982381;28;20002;-53
2021/07/07 07:49:31;;;;;;;;;;;18.10;99.90;;;;;;4987430;28;20201;-54
2021/07/07 07:51:57;;;;;;;;;;;18.20;99.90;;;;;;4985587;28;20468;-53
2021/07/07 07:54:22;;;;;;;;;;;18.10;99.90;;;;;;4985934;28;19998;-54
2021/07/07 07:56:48;;;;;;;;;;;18.30;99.90;;;;;;4987782;28;19986;-53
2021/07/07 07:59:13;;;;;;;;;;;18.40;99.90;;;;;;4987286;28;20106;-54
2021/07/07 08:01:40;;;;;;;;;;;18.60;99.90;;;;;;4975239;28;20018;-53
2021/07/07 08:04:07;;;;;;;;;;;18.60;99.90;;;;;;4968952;28;19999;-53
2021/07/07 08:06:34;;;;;;;;;;;18.60;99.90;;;;;;4968346;28;20005;-53
2021/07/07 08:09:01;;;;;;;;;;;18.80;99.90;;;;;;4966679;28;19992;-54
2021/07/07 08:11:27;;;;;;;;;;;18.80;99.90;;;;;;4969286;28;20093;-53
2021/07/07 08:13:53;;;;;;;;;;;18.80;99.90;;;;;;4968339;28;20073;-53
2021/07/07 08:16:20;;;;;;;;;;;18.90;99.90;;;;;;4982413;28;20373;-51
2021/07/07 08:18:46;;;;;;;;;;;18.90;99.90;;;;;;4968397;28;20052;-53
2021/07/07 08:21:12;;;;;;;;;;;18.90;99.90;;;;;;4967496;28;20492;-53
2021/07/07 08:23:38;;;;;;;;;;;19.00;99.90;;;;;;4986930;28;20084;-54
2021/07/07 08:26:04;;;;;;;;;;;19.00;99.90;;;;;;4987423;28;20089;-53
2021/07/07 08:28:29;;;;;;;;;;;19.20;99.90;;;;;;4986943;28;19990;-52
2021/07/07 08:30:56;;;;;;;;;;;19.10;99.90;;;;;;4968448;28;20006;-53
2021/07/07 08:33:22;;;;;;;;;;;19.30;99.90;;;;;;4968140;28;20405;-53
2021/07/07 08:35:48;;;;;;;;;;;19.30;99.90;;;;;;4967908;28;19994;-53
2021/07/07 08:38:13;;;;;;;;;;;19.30;99.90;;;;;;4972412;28;19994;-54
2021/07/07 08:40:39;;;;;;;;;;;19.40;99.90;;;;;;4986666;28;20019;-54
2021/07/07 08:43:05;;;;;;;;;;;19.30;99.90;;;;;;4987692;28;20001;-53
2021/07/07 08:45:32;;;;;;;;;;;19.50;99.90;;;;;;4987024;28;20085;-54
2021/07/07 08:47:59;;;;;;;;;;;19.40;99.90;;;;;;4981417;28;20542;-54
2021/07/07 08:50:26;;;;;;;;;;;19.50;99.90;;;;;;4982306;28;20003;-54
2021/07/07 08:52:54;;;;;;;;;;;19.60;99.90;;;;;;4975596;28;20001;-53
2021/07/07 08:55:20;;;;;;;;;;;19.50;99.90;;;;;;4990012;28;20045;-54
2021/07/07 08:57:46;;;;;;;;;;;19.50;99.90;;;;;;4990025;28;20002;-53
2021/07/07 09:00:11;;;;;;;;;;;19.40;99.90;;;;;;4989731;28;20169;-53
2021/07/07 09:02:48;;;;;;;;;;;19.40;99.90;;;;;;4990530;28;20077;-53
2021/07/07 09:05:13;;;;;;;;;;;19.50;99.90;;;;;;4989754;28;20057;-52
2021/07/07 09:07:40;;;;;;;;;;;19.50;99.90;;;;;;4990428;28;20113;-50
2021/07/07 09:10:05;;;;;;;;;;;19.40;99.90;;;;;;4990236;28;20133;-53
2021/07/07 09:12:34;;;;;;;;;;;19.30;99.90;;;;;;4982012;28;20077;-50
2021/07/07 09:15:20;;;;;;;;;;;19.30;99.90;;;;;;4979382;28;19999;-53
2021/07/07 09:17:50;;;;;;;;;;;19.40;99.90;;;;;;4988823;28;19998;-52
2021/07/07 09:20:16;;;;;;;;;;;19.70;99.90;;;;;;4979942;28;20010;-53
2021/07/07 09:22:41;;;;;;;;;;;19.60;99.90;;;;;;4971465;28;19995;-52
2021/07/07 09:25:07;;;;;;;;;;;19.40;99.90;;;;;;4987128;28;20484;-53
2021/07/07 09:27:35;;;;;;;;;;;19.50;99.90;;;;;;4990854;28;20064;-50
2021/07/07 09:30:06;;;;;;;;;;;19.60;99.90;;;;;;5004445;28;20518;-51
2021/07/07 09:32:39;;;;;;;;;;;19.70;99.90;;;;;;4984822;28;20089;-49
2021/07/07 09:35:05;;;;;;;;;;;19.60;99.90;;;;;;4991521;28;20089;-53
2021/07/07 09:37:40;;;;;;;;;;;19.50;99.90;;;;;;4992070;28;20133;-53
2021/07/07 09:40:09;;;;;;;;;;;19.40;99.90;;;;;;4991439;28;20438;-53
2021/07/07 09:42:35;;;;;;;;;;;19.50;99.90;;;;;;4992167;28;19987;-51
2021/07/07 09:45:04;;;;;;;;;;;19.80;99.90;;;;;;4990702;28;20718;-53
2021/07/07 09:47:31;;;;;;;;;;;19.90;99.90;;;;;;4991960;28;19998;-50
2021/07/07 09:49:58;;;;;;;;;;;19.80;99.90;;;;;;4990691;28;19987;-51
2021/07/07 09:52:26;;;;;;;;;;;19.90;99.90;;;;;;4991520;28;19990;-49
2021/07/07 09:54:51;;;;;;;;;;;19.90;99.90;;;;;;4991913;28;19994;-52
2021/07/07 09:57:17;;;;;;;;;;;20.00;99.90;;;;;;4991629;28;19995;-51
2021/07/07 09:59:43;;;;;;;;;;;20.00;99.90;;;;;;4992216;28;20030;-53
2021/07/07 10:02:09;;;;;;;;;;;20.10;99.90;;;;;;4991479;28;20017;-51
2021/07/07 10:04:39;;;;;;;;;;;20.10;99.90;;;;;;4990874;28;19998;-49
2021/07/07 10:07:05;;;;;;;;;;;20.20;99.90;;;;;;4988700;28;20448;-52
2021/07/07 10:09:33;;;;;;;;;;;20.20;99.90;;;;;;4983020;28;20468;-50
2021/07/07 10:11:58;;;;;;;;;;;20.30;99.90;;;;;;4975146;28;20463;-51
2021/07/07 10:14:24;;;;;;;;;;;20.20;99.90;;;;;;4979403;28;20077;-49
2021/07/07 10:16:50;;;;;;;;;;;20.20;99.90;;;;;;4973155;28;20061;-49
2021/07/07 10:19:17;;;;;;;;;;;20.30;99.90;;;;;;4988121;28;19998;-52
2021/07/07 10:21:43;;;;;;;;;;;20.40;99.90;;;;;;4991903;28;20384;-52
2021/07/07 10:24:10;;;;;;;;;;;20.40;99.90;;;;;;4992130;28;19986;-52
2021/07/07 10:26:39;;;;;;;;;;;20.50;99.90;;;;;;4990654;28;20404;-52
2021/07/07 10:29:05;;;;;;;;;;;20.50;99.90;;;;;;4992141;28;19995;-50
2021/07/07 10:31:46;;;;;;;;;;;20.60;99.90;;;;;;4992284;28;20109;-54
2021/07/07 10:34:13;;;;;;;;;;;20.60;99.90;;;;;;4972205;28;19991;-51
2021/07/07 10:36:39;;;;;;;;;;;20.80;99.90;;;;;;4972933;28;19991;-50
2021/07/07 10:39:07;;;;;;;;;;;20.90;99.90;;;;;;4981956;28;19991;-52
2021/07/07 10:41:41;;;;;;;;;;;20.90;99.90;;;;;;4971905;28;20038;-52
2021/07/07 10:44:22;;;;;;;;;;;21.00;99.90;;;;;;4971663;28;20471;-52
2021/07/07 10:46:50;;;;;;;;;;;21.00;99.90;;;;;;4971846;28;19990;-52
2021/07/07 10:49:18;;;;;;;;;;;21.00;99.90;;;;;;4972513;28;20114;-51
2021/07/07 10:51:48;;;;;;;;;;;21.00;99.90;;;;;;4971500;28;19987;-52
2021/07/07 10:54:20;;;;;;;;;;;20.80;99.90;;;;;;4971522;28;20034;-50
2021/07/07 10:56:47;;;;;;;;;;;20.90;99.90;;;;;;4971555;28;19991;-51
2021/07/07 10:59:27;;;;;;;;;;;21.10;99.90;;;;;;4971172;28;20009;-51
2021/07/07 11:02:03;;;;;;;;;;;21.10;99.90;;;;;;4970315;28;20041;-51
2021/07/07 11:04:48;;;;;;;;;;;21.20;99.90;;;;;;4971178;28;20002;-52
2021/07/07 11:07:22;;;;;;;;;;;21.10;99.90;;;;;;4976035;28;20388;-53
2021/07/07 11:09:52;;;;;;;;;;;21.10;99.90;;;;;;4974725;28;20037;-49
2021/07/07 11:12:20;;;;;;;;;;;21.50;99.90;;;;;;4970604;28;19995;-52
2021/07/07 11:15:02;;;;;;;;;;;21.80;99.90;;;;;;4972585;28;20457;-51
2021/07/07 11:17:38;;;;;;;;;;;21.90;99.90;;;;;;4976620;28;20604;-50
2021/07/07 11:20:13;;;;;;;;;;;21.90;99.90;;;;;;4975510;28;19990;-52
2021/07/07 11:22:41;;;;;;;;;;;22.10;99.90;;;;;;4977793;28;19998;-49
2021/07/07 11:25:07;;;;;;;;;;;22.20;99.90;;;;;;4974101;28;20009;-50
2021/07/07 11:27:34;;;;;;;;;;;22.00;99.90;;;;;;4978228;28;20469;-51
2021/07/07 11:30:00;;;;;;;;;;;21.90;99.90;;;;;;4969000;28;20188;-50
2021/07/07 11:32:28;;;;;;;;;;;22.10;99.90;;;;;;4980737;28;20010;-51
2021/07/07 11:34:54;;;;;;;;;;;22.30;99.90;;;;;;4981455;28;20085;-52
2021/07/07 11:37:24;;;;;;;;;;;22.50;99.90;;;;;;4986130;28;20001;-51
2021/07/07 11:40:19;;;;;;;;;;;22.60;99.90;;;;;;4988450;28;20026;-52
2021/07/07 11:42:52;;;;;;;;;;;22.70;99.90;;;;;;4970472;28;20053;-49
2021/07/07 11:45:20;;;;;;;;;;;22.80;99.90;;;;;;4969071;28;19995;-50
2021/07/07 11:47:49;;;;;;;;;;;22.80;99.90;;;;;;4969297;28;20388;-50
2021/07/07 11:50:16;;;;;;;;;;;23.00;99.90;;;;;;4983819;28;20011;-52
2021/07/07 11:52:57;;;;;;;;;;;23.10;99.90;;;;;;4969379;28;20395;-52
2021/07/07 11:55:52;;;;;;;;;;;23.20;99.90;;;;;;4969382;28;20414;-54
2021/07/07 11:58:19;;;;;;;;;;;23.40;99.90;;;;;;4967619;28;20444;-52
2021/07/07 12:00:45;;;;;;;;;;;23.40;99.90;;;;;;4969332;28;20019;-50
2021/07/07 12:03:10;;;;;;;;;;;23.20;99.90;;;;;;4969001;28;20371;-50
2021/07/07 12:05:36;;;;;;;;;;;23.50;99.90;;;;;;4968940;28;20421;-51
2021/07/07 12:08:18;;;;;;;;;;;23.90;99.90;;;;;;4968579;28;19995;-50
2021/07/07 12:10:44;;;;;;;;;;;24.10;99.90;;;;;;4969009;28;20029;-53
2021/07/07 12:13:27;;;;;;;;;;;24.10;99.90;;;;;;4968633;28;20532;-49
2021/07/07 12:16:11;;;;;;;;;;;23.90;99.90;;;;;;4968905;28;19994;-51
2021/07/07 12:18:36;;;;;;;;;;;23.70;99.90;;;;;;4968886;28;19991;-50
2021/07/07 12:21:02;;;;;;;;;;;23.90;99.90;;;;;;4968262;28;20533;-52
2021/07/07 12:23:27;;;;;;;;;;;24.00;99.90;;;;;;4968820;28;19993;-53
2021/07/07 12:26:02;;;;;;;;;;;24.30;99.90;;;;;;4968719;28;20081;-52
2021/07/07 12:28:29;;;;;;;;;;;24.40;99.90;;;;;;4968348;28;19986;-50
2021/07/07 12:30:55;;;;;;;;;;;24.30;99.90;;;;;;4968829;28;20089;-50
2021/07/07 12:33:21;;;;;;;;;;;24.10;99.90;;;;;;4968312;28;20026;-50
2021/07/07 12:35:48;;;;;;;;;;;24.40;99.90;;;;;;4968556;28;19987;-50
2021/07/07 12:38:13;;;;;;;;;;;24.60;99.90;;;;;;4967718;28;19994;-51
2021/07/07 12:40:39;;;;;;;;;;;24.80;99.90;;;;;;4968776;28;20007;-50
2021/07/07 12:43:09;;;;;;;;;;;24.70;99.90;;;;;;4968267;28;19997;-51
2021/07/07 12:45:34;;;;;;;;;;;24.60;99.90;;;;;;4969116;28;19991;-53
2021/07/07 12:48:08;;;;;;;;;;;24.70;99.90;;;;;;4968425;28;20352;-52
2021/07/07 12:50:38;;;;;;;;;;;25.00;99.90;;;;;;4968509;28;20005;-50
2021/07/07 12:53:04;;;;;;;;;;;25.30;99.90;;;;;;4968102;28;19987;-49
2021/07/07 12:55:31;;;;;;;;;;;25.50;99.90;;;;;;4968564;28;19991;-51
2021/07/07 12:58:03;;;;;;;;;;;25.60;99.90;;;;;;4968439;28;20001;-52
2021/07/07 13:00:32;;;;;;;;;;;25.80;99.90;;;;;;4968301;28;20109;-49
2021/07/07 13:03:02;;;;;;;;;;;25.90;99.90;;;;;;4983024;28;20429;-49
2021/07/07 13:05:29;;;;;;;;;;;26.10;99.90;;;;;;4968263;28;19997;-52
2021/07/07 13:07:56;;;;;;;;;;;26.30;99.90;;;;;;4968789;28;19998;-52
2021/07/07 13:10:47;;;;;;;;;;;26.50;99.90;;;;;;4968019;28;19999;-51
2021/07/07 13:13:20;;;;;;;;;;;26.30;99.90;;;;;;4968164;28;20014;-51
2021/07/07 13:16:03;;;;;;;;;;;26.20;99.90;;;;;;4968463;28;20429;-50
2021/07/07 13:18:29;;;;;;;;;;;26.50;99.90;;;;;;4968068;28;20014;-50
2021/07/07 13:20:55;;;;;;;;;;;26.10;99.90;;;;;;4968081;28;20524;-53
2021/07/07 13:23:25;;;;;;;;;;;26.00;99.90;;;;;;4967856;28;19997;-52
2021/07/07 13:25:51;;;;;;;;;;;26.10;99.90;;;;;;4968190;28;20022;-53
2021/07/07 13:28:29;;;;;;;;;;;26.30;99.90;;;;;;4982845;28;20042;-51
2021/07/07 13:30:54;;;;;;;;;;;26.50;99.90;;;;;;4968166;28;19997;-50
2021/07/07 13:33:21;;;;;;;;;;;26.70;99.90;;;;;;4968965;28;20376;-50
2021/07/07 13:35:46;;;;;;;;;;;26.90;99.90;;;;;;4968845;28;19994;-50
2021/07/07 13:38:12;;;;;;;;;;;27.20;99.90;;;;;;4967775;28;20002;-53
2021/07/07 13:40:37;;;;;;;;;;;27.20;99.90;;;;;;4971539;28;20388;-54
2021/07/07 13:43:04;;;;;;;;;;;27.40;99.90;;;;;;4973845;28;20050;-52
2021/07/07 13:45:30;;;;;;;;;;;27.30;99.90;;;;;;4977255;28;20053;-53
2021/07/07 13:47:56;;;;;;;;;;;27.20;99.90;;;;;;4990787;28;20022;-53
2021/07/07 13:50:21;;;;;;;;;;;27.20;99.90;;;;;;4991574;28;19994;-53
2021/07/07 13:52:48;;;;;;;;;;;26.90;99.90;;;;;;4987160;28;20054;-52
2021/07/07 13:55:13;;;;;;;;;;;27.00;99.90;;;;;;4990561;28;20086;-54
2021/07/07 13:57:39;;;;;;;;;;;27.00;99.90;;;;;;4991405;28;20098;-51
2021/07/07 14:00:05;;;;;;;;;;;27.10;99.90;;;;;;4991288;28;20002;-54
2021/07/07 14:02:31;;;;;;;;;;;27.40;99.90;;;;;;4991062;28;20391;-52
2021/07/07 14:04:58;;;;;;;;;;;27.60;99.90;;;;;;4984899;28;20094;-53
2021/07/07 14:07:23;;;;;;;;;;;27.50;99.90;;;;;;4972093;28;20563;-54
2021/07/07 14:13:10;;;;;;;;;;;27.30;99.90;;;;;;4988128;28;20001;-51
2021/07/07 14:15:36;;;;;;;;;;;27.50;99.90;;;;;;4988245;28;20003;-53
2021/07/07 14:18:01;;;;;;;;;;;27.30;99.90;;;;;;4991356;28;19991;-50
2021/07/07 14:20:29;;;;;;;;;;;27.50;99.90;;;;;;4991198;28;20017;-52
2021/07/07 14:22:54;;;;;;;;;;;27.50;99.90;;;;;;4990749;28;19994;-51